createdAt,value
2019-02-25T00:00:30.945Z,16.00
2019-02-25T00:03:08.341Z,17.25
2019-02-25T00:05:44.189Z,22.45
2019-02-25T00:08:20.053Z,21.48
2019-02-25T00:10:55.908Z,18.23
2019-02-25T00:13:31.748Z,16.62
2019-02-25T00:16:09.473Z,16.15
2019-02-25T00:18:45.098Z,15.85
2019-02-25T00:21:20.960Z,15.70
2019-02-25T00:23:56.816Z,16.55
2019-02-25T00:26:32.653Z,17.52
2019-02-25T00:29:08.507Z,15.60
2019-02-25T00:31:44.368Z,17.55
2019-02-25T00:34:20.220Z,20.43
2019-02-25T00:36:56.082Z,26.00
2019-02-25T00:39:32.233Z,27.70
2019-02-25T00:42:08.193Z,22.17
2019-02-25T00:44:44.057Z,17.57
2019-02-25T00:47:19.908Z,22.37
2019-02-25T00:49:55.751Z,19.65
2019-02-25T00:52:31.603Z,20.90
2019-02-25T00:55:08.311Z,17.25
2019-02-25T00:57:44.139Z,16.37
2019-02-25T01:00:23.677Z,18.55
2019-02-25T01:02:59.527Z,17.23
2019-02-25T01:05:35.390Z,18.25
2019-02-25T01:08:11.234Z,17.92
2019-02-25T01:10:47.512Z,15.95
2019-02-25T01:13:23.350Z,16.80
2019-02-25T01:15:59.219Z,16.05
2019-02-25T01:18:35.061Z,14.87
2019-02-25T01:21:10.928Z,14.78
2019-02-25T01:23:48.890Z,14.38
2019-02-25T01:26:24.263Z,14.75
2019-02-25T01:29:00.115Z,14.38
2019-02-25T01:31:35.976Z,13.58
2019-02-25T01:34:11.835Z,15.68
2019-02-25T01:36:47.675Z,18.48
2019-02-25T01:39:23.428Z,24.90
2019-02-25T01:41:59.297Z,19.07
2019-02-25T01:44:35.150Z,18.62
2019-02-25T01:47:10.993Z,17.12
2019-02-25T01:49:46.850Z,16.07
2019-02-25T01:52:22.697Z,15.75
2019-02-25T01:54:58.553Z,15.85
2019-02-25T01:57:34.407Z,15.40
2019-02-25T02:00:18.157Z,18.27
2019-02-25T02:02:54.011Z,20.08
2019-02-25T02:05:29.861Z,16.40
2019-02-25T02:08:05.708Z,14.53
2019-02-25T02:10:41.563Z,13.55
2019-02-25T02:13:18.795Z,14.15
2019-02-25T02:15:54.603Z,12.70
2019-02-25T02:18:30.467Z,14.98
2019-02-25T02:21:06.314Z,13.53
2019-02-25T02:23:42.170Z,14.78
2019-02-25T02:26:18.121Z,14.07
2019-02-25T02:28:53.976Z,14.33
2019-02-25T02:31:29.841Z,12.10
2019-02-25T02:34:05.687Z,12.00
2019-02-25T02:36:41.547Z,11.95
2019-02-25T02:39:17.386Z,11.28
2019-02-25T02:42:15.157Z,12.37
2019-02-25T02:44:53.398Z,22.93
2019-02-25T02:47:50.628Z,29.85
2019-02-25T02:50:26.695Z,25.65
2019-02-25T02:53:02.545Z,20.65
2019-02-25T02:55:38.400Z,18.50
2019-02-25T02:58:14.245Z,16.12
2019-02-25T03:00:50.200Z,16.40
2019-02-25T03:03:26.013Z,15.90
2019-02-25T03:06:01.925Z,16.25
2019-02-25T03:08:38.089Z,16.55
2019-02-25T03:11:15.060Z,21.23
2019-02-25T03:13:50.908Z,18.95
2019-02-25T03:16:26.721Z,19.17
2019-02-25T03:19:02.519Z,19.15
2019-02-25T03:21:38.365Z,19.42
2019-02-25T03:24:14.227Z,19.40
2019-02-25T03:26:51.196Z,20.50
2019-02-25T03:29:26.951Z,19.55
2019-02-25T03:32:02.906Z,21.30
2019-02-25T03:34:38.766Z,19.55
2019-02-25T03:37:14.608Z,21.42
2019-02-25T03:39:51.612Z,20.08
2019-02-25T03:42:27.464Z,20.92
2019-02-25T03:45:03.823Z,22.60
2019-02-25T03:47:39.764Z,23.27
2019-02-25T03:50:15.622Z,21.77
2019-02-25T03:52:51.487Z,20.90
2019-02-25T03:55:27.335Z,21.68
2019-02-25T03:58:03.504Z,20.82
2019-02-25T04:00:39.346Z,20.48
2019-02-25T04:03:15.713Z,20.45
2019-02-25T04:05:51.566Z,20.05
2019-02-25T04:08:27.629Z,21.37
2019-02-25T04:11:03.491Z,21.57
2019-02-25T04:13:39.334Z,21.45
2019-02-25T04:16:15.199Z,22.07
2019-02-25T04:18:51.048Z,21.80
2019-02-25T04:21:27.915Z,21.42
2019-02-25T04:24:03.784Z,20.52
2019-02-25T04:26:39.619Z,21.62
2019-02-25T04:29:15.482Z,20.15
2019-02-25T04:31:51.344Z,23.67
2019-02-25T04:34:27.092Z,23.55
2019-02-25T04:37:04.083Z,22.27
2019-02-25T04:39:39.811Z,20.55
2019-02-25T04:42:15.679Z,22.02
2019-02-25T04:44:51.429Z,21.42
2019-02-25T04:47:27.290Z,21.60
2019-02-25T04:50:03.130Z,21.70
2019-02-25T04:52:38.992Z,20.43
2019-02-25T04:55:15.658Z,21.55
2019-02-25T04:57:51.508Z,20.37
2019-02-25T05:00:27.785Z,19.50
2019-02-25T05:03:03.634Z,20.90
2019-02-25T05:05:39.494Z,20.27
2019-02-25T05:08:15.348Z,20.20
2019-02-25T05:10:51.196Z,20.00
2019-02-25T05:13:27.045Z,18.90
2019-02-25T05:16:02.900Z,20.23
2019-02-25T05:18:40.280Z,19.82
2019-02-25T05:21:16.150Z,19.75
2019-02-25T05:23:52.011Z,18.55
2019-02-25T05:26:27.851Z,20.10
2019-02-25T05:29:03.736Z,21.85
2019-02-25T05:31:39.878Z,21.30
2019-02-25T05:34:15.656Z,20.88
2019-02-25T05:36:51.712Z,19.40
2019-02-25T05:39:27.950Z,19.55
2019-02-25T05:42:03.767Z,22.62
2019-02-25T05:44:40.566Z,22.17
2019-02-25T05:47:16.425Z,24.47
2019-02-25T05:49:52.286Z,26.10
2019-02-25T05:52:28.100Z,24.52
2019-02-25T05:55:04.585Z,26.20
2019-02-25T05:57:40.352Z,25.80
2019-02-25T06:00:19.103Z,25.07
2019-02-25T06:02:55.547Z,25.82
2019-02-25T06:05:31.712Z,29.07
2019-02-25T06:08:07.561Z,34.60
2019-02-25T06:10:43.409Z,33.73
2019-02-25T06:13:19.275Z,30.90
2019-02-25T06:15:55.124Z,28.02
2019-02-25T06:18:30.969Z,26.62
2019-02-25T06:21:06.824Z,27.05
2019-02-25T06:23:42.794Z,26.17
2019-02-25T06:26:18.648Z,25.77
2019-02-25T06:29:01.069Z,25.52
2019-02-25T06:31:42.395Z,24.63
2019-02-25T06:34:19.887Z,24.02
2019-02-25T06:36:55.781Z,28.42
2019-02-25T06:39:31.643Z,43.17
2019-02-25T06:42:07.490Z,36.50
2019-02-25T06:44:43.330Z,31.30
2019-02-25T06:47:19.187Z,31.57
2019-02-25T06:49:54.936Z,31.62
2019-02-25T06:52:30.893Z,33.23
2019-02-25T06:55:09.776Z,33.13
2019-02-25T06:57:45.580Z,31.57
2019-02-25T07:00:24.497Z,40.67
2019-02-25T07:03:00.281Z,44.67
2019-02-25T07:05:43.480Z,42.03
2019-02-25T07:08:20.863Z,33.90
2019-02-25T07:10:58.370Z,31.25
2019-02-25T07:13:51.112Z,33.35
2019-02-25T07:16:31.267Z,31.73
2019-02-25T07:19:14.902Z,31.73
2019-02-25T07:21:55.059Z,19.45
2019-02-25T07:24:52.939Z,16.57
2019-02-25T07:27:38.613Z,16.45
2019-02-25T07:30:28.096Z,16.37
2019-02-25T07:33:11.527Z,11.93
2019-02-25T07:35:48.911Z,11.65
2019-02-25T07:38:26.394Z,12.40
2019-02-25T07:41:15.684Z,12.93
2019-02-25T07:44:09.744Z,12.58
2019-02-25T07:46:53.190Z,11.88
2019-02-25T07:49:36.723Z,11.53
2019-02-25T07:52:17.191Z,11.00
2019-02-25T07:55:00.413Z,11.18
2019-02-25T07:57:40.659Z,11.97
2019-02-25T08:00:26.979Z,12.70
2019-02-25T08:03:04.351Z,11.78
2019-02-25T08:05:47.786Z,12.82
2019-02-25T08:08:25.183Z,13.15
2019-02-25T08:11:11.477Z,13.30
2019-02-25T08:13:51.759Z,12.80
2019-02-25T08:16:45.404Z,12.20
2019-02-25T08:19:31.591Z,12.58
2019-02-25T08:22:18.110Z,11.05
2019-02-25T08:25:13.614Z,12.13
2019-02-25T08:28:07.593Z,12.05
2019-02-25T08:31:02.699Z,12.88
2019-02-25T08:33:57.597Z,12.55
2019-02-25T08:37:03.912Z,12.45
2019-02-25T08:39:58.364Z,13.38
2019-02-25T08:42:34.620Z,13.75
2019-02-25T08:45:15.034Z,13.68
2019-02-25T08:47:52.481Z,14.83
2019-02-25T08:50:28.340Z,14.63
2019-02-25T08:53:04.292Z,15.78
2019-02-25T08:55:40.132Z,14.83
2019-02-25T08:58:16.098Z,14.73
2019-02-25T09:00:51.954Z,15.08
2019-02-25T09:03:27.798Z,16.57
2019-02-25T09:06:03.649Z,16.75
2019-02-25T09:08:39.402Z,17.65
2019-02-25T09:11:15.254Z,16.93
2019-02-25T09:13:51.125Z,17.20
2019-02-25T09:16:26.990Z,18.90
2019-02-25T09:19:02.729Z,18.23
2019-02-25T09:21:38.584Z,19.35
2019-02-25T09:24:14.320Z,18.48
2019-02-25T09:26:50.187Z,18.87
2019-02-25T09:29:25.927Z,18.57
2019-02-25T09:32:01.790Z,18.80
2019-02-25T09:34:37.533Z,20.35
2019-02-25T09:37:13.604Z,19.98
2019-02-25T09:39:49.458Z,22.10
2019-02-25T09:42:25.304Z,21.10
2019-02-25T09:45:01.168Z,21.95
2019-02-25T09:47:38.555Z,22.22
2019-02-25T09:50:17.570Z,21.47
2019-02-25T09:52:53.430Z,21.55
2019-02-25T09:55:29.183Z,21.70
2019-02-25T09:58:05.039Z,21.05
2019-02-25T10:00:40.781Z,21.75
2019-02-25T10:03:16.650Z,21.02
2019-02-25T10:05:52.502Z,23.35
2019-02-25T10:08:28.558Z,24.05
2019-02-25T10:11:04.506Z,24.00
2019-02-25T10:13:40.472Z,24.95
2019-02-25T10:16:16.233Z,23.60
2019-02-25T10:18:52.083Z,23.83
2019-02-25T10:21:27.974Z,24.85
2019-02-25T10:24:03.781Z,23.98
2019-02-25T10:26:39.633Z,24.57
2019-02-25T10:29:15.483Z,27.02
2019-02-25T10:31:51.338Z,27.55
2019-02-25T10:34:27.199Z,33.80
2019-02-25T10:37:03.053Z,29.10
2019-02-25T10:39:39.000Z,26.45
2019-02-25T10:42:14.856Z,25.77
2019-02-25T10:44:50.708Z,24.45
2019-02-25T10:47:26.572Z,26.80
2019-02-25T10:50:03.222Z,27.02
2019-02-25T10:52:41.317Z,25.23
2019-02-25T10:55:32.864Z,25.75
2019-02-25T10:58:11.051Z,26.90
2019-02-25T11:00:46.934Z,28.85
2019-02-25T11:03:23.908Z,25.88
2019-02-25T11:06:00.853Z,27.07
2019-02-25T11:08:39.416Z,25.57
2019-02-25T11:11:18.842Z,28.95
2019-02-25T11:13:55.617Z,28.98
2019-02-25T11:16:31.481Z,28.62
2019-02-25T11:19:07.326Z,29.07
2019-02-25T11:21:44.260Z,31.93
2019-02-25T11:24:21.129Z,26.55
2019-02-25T11:26:59.054Z,26.10
2019-02-25T11:29:35.163Z,26.85
2019-02-25T11:32:11.316Z,24.07
2019-02-25T11:34:47.177Z,24.12
2019-02-25T11:37:24.688Z,26.45
2019-02-25T11:40:01.876Z,25.10
2019-02-25T11:42:38.625Z,26.30
2019-02-25T11:45:17.539Z,25.43
2019-02-25T11:47:53.398Z,24.32
2019-02-25T11:50:29.146Z,26.65
2019-02-25T11:53:05.566Z,23.47
2019-02-25T11:55:42.095Z,26.60
2019-02-25T11:58:17.944Z,26.65
2019-02-25T12:00:53.800Z,25.72
2019-02-25T12:03:29.857Z,25.60
2019-02-25T12:06:05.708Z,26.50
2019-02-25T12:08:41.564Z,25.40
2019-02-25T12:11:17.413Z,26.02
2019-02-25T12:13:53.265Z,32.98
2019-02-25T12:16:29.133Z,27.17
2019-02-25T12:19:05.088Z,26.17
2019-02-25T12:21:42.321Z,24.55
2019-02-25T12:24:22.868Z,26.60
2019-02-25T12:27:07.675Z,28.05
2019-02-25T12:29:45.608Z,24.80
2019-02-25T12:32:21.452Z,25.55
2019-02-25T12:35:07.313Z,23.65
2019-02-25T12:37:44.624Z,23.62
2019-02-25T12:40:20.794Z,21.80
2019-02-25T12:42:56.638Z,21.10
2019-02-25T12:45:32.500Z,20.12
2019-02-25T12:48:08.346Z,20.85
2019-02-25T12:50:44.210Z,20.70
2019-02-25T12:53:20.369Z,21.65
2019-02-25T12:55:56.218Z,20.40
2019-02-25T12:58:32.083Z,20.72
2019-02-25T13:01:07.923Z,22.60
2019-02-25T13:03:43.774Z,21.95
2019-02-25T13:06:19.640Z,22.02
2019-02-25T13:08:55.499Z,22.82
2019-02-25T13:11:32.478Z,23.10
2019-02-25T13:14:08.256Z,29.55
2019-02-25T13:16:44.079Z,29.37
2019-02-25T13:19:20.039Z,21.20
2019-02-25T13:21:55.881Z,21.27
2019-02-25T13:24:32.732Z,21.40
2019-02-25T13:27:11.767Z,23.47
2019-02-25T13:29:47.112Z,20.65
2019-02-25T13:32:23.747Z,19.87
2019-02-25T13:34:59.664Z,20.17
2019-02-25T13:37:35.814Z,20.15
2019-02-25T13:40:13.269Z,20.17
2019-02-25T13:42:50.764Z,19.17
2019-02-25T13:45:26.551Z,19.98
2019-02-25T13:48:02.416Z,18.07
2019-02-25T13:50:39.415Z,17.92
2019-02-25T13:53:15.578Z,18.32
2019-02-25T13:55:51.607Z,23.65
2019-02-25T13:58:27.613Z,19.23
2019-02-25T14:01:04.247Z,19.12
2019-02-25T14:03:40.199Z,18.80
2019-02-25T14:06:16.674Z,17.75
2019-02-25T14:08:52.523Z,19.27
2019-02-25T14:11:28.375Z,19.35
2019-02-25T14:14:04.239Z,19.73
2019-02-25T14:16:40.085Z,20.60
2019-02-25T14:19:15.930Z,19.55
2019-02-25T14:21:51.788Z,21.50
2019-02-25T14:24:27.773Z,18.17
2019-02-25T14:27:03.595Z,18.92
2019-02-25T14:29:39.459Z,18.85
2019-02-25T14:32:15.826Z,18.92
2019-02-25T14:34:51.669Z,18.67
2019-02-25T14:37:27.540Z,18.85
2019-02-25T14:40:05.995Z,17.50
2019-02-25T14:42:44.699Z,17.60
2019-02-25T14:45:21.623Z,16.90
2019-02-25T14:47:59.642Z,18.62
2019-02-25T14:50:34.284Z,17.67
2019-02-25T14:53:11.574Z,18.70
2019-02-25T14:55:49.713Z,17.25
2019-02-25T14:58:25.414Z,17.30
2019-02-25T15:01:01.269Z,18.70
2019-02-25T15:03:38.246Z,17.67
2019-02-25T15:06:14.109Z,18.42
2019-02-25T15:08:49.853Z,17.15
2019-02-25T15:11:25.723Z,17.57
2019-02-25T15:14:01.778Z,17.98
2019-02-25T15:16:38.653Z,16.55
2019-02-25T15:19:15.143Z,20.92
2019-02-25T15:21:52.179Z,18.20
2019-02-25T15:24:29.077Z,18.62
2019-02-25T15:27:06.584Z,18.52
2019-02-25T15:29:44.742Z,17.80
2019-02-25T15:32:20.962Z,18.52
2019-02-25T15:34:57.296Z,17.40
2019-02-25T15:37:33.399Z,18.23
2019-02-25T15:40:18.017Z,18.20
2019-02-25T15:45:40.182Z,18.75
2019-02-25T15:48:20.381Z,20.52
2019-02-25T15:50:58.615Z,21.53
2019-02-25T15:53:33.957Z,21.35
2019-02-25T15:56:10.669Z,24.30
2019-02-25T15:58:47.859Z,22.85
2019-02-25T16:01:23.672Z,22.15
2019-02-25T16:04:02.266Z,24.37
2019-02-25T16:06:39.805Z,28.67
2019-02-25T16:09:19.294Z,33.23
2019-02-25T16:11:54.259Z,30.68
2019-02-25T16:14:30.079Z,29.07
2019-02-25T16:17:05.959Z,29.50
2019-02-25T16:19:47.534Z,23.45
2019-02-25T16:22:19.282Z,20.92
2019-02-25T16:24:55.051Z,23.87
2019-02-25T16:27:30.834Z,22.77
2019-02-25T16:30:09.701Z,24.07
2019-02-25T16:32:48.425Z,27.22
2019-02-25T16:35:24.330Z,28.15
2019-02-25T16:38:02.299Z,24.40
2019-02-25T16:40:39.639Z,25.68
2019-02-25T16:43:15.099Z,26.87
2019-02-25T16:45:50.937Z,24.95
2019-02-25T16:48:28.200Z,41.58
2019-02-25T16:51:07.942Z,28.25
2019-02-25T16:53:45.547Z,21.23
2019-02-25T16:56:21.622Z,22.13
2019-02-25T16:58:59.003Z,22.77
2019-02-25T17:12:56.252Z,29.52
2019-02-25T17:15:32.209Z,28.52
2019-02-25T17:18:07.986Z,26.05
2019-02-25T17:20:45.085Z,29.15
2019-02-25T17:23:22.787Z,32.83
2019-02-25T17:25:58.769Z,28.23
2019-02-25T17:28:34.880Z,26.07
2019-02-25T17:31:11.448Z,27.77
2019-02-25T17:33:49.269Z,27.90
2019-02-25T17:36:25.512Z,26.20
2019-02-25T17:39:01.663Z,26.73
2019-02-25T17:41:39.928Z,24.90
2019-02-25T17:44:17.882Z,26.90
2019-02-25T17:46:57.666Z,24.15
2019-02-25T17:49:33.692Z,23.07
2019-02-25T17:52:11.721Z,22.93
2019-02-25T17:54:47.316Z,24.35
2019-02-25T17:57:23.354Z,32.58
2019-02-25T17:59:59.259Z,29.85
2019-02-25T18:02:36.080Z,29.63
2019-02-25T18:05:14.281Z,29.67
2019-02-25T18:07:50.434Z,29.55
2019-02-25T18:10:27.300Z,28.42
2019-02-25T18:13:08.016Z,33.42
2019-02-25T18:15:41.137Z,34.05
2019-02-25T18:18:17.799Z,38.48
2019-02-25T18:20:54.355Z,50.25
2019-02-25T18:23:30.103Z,60.20
2019-02-25T18:26:05.980Z,48.10
2019-02-25T18:28:43.486Z,29.20
2019-02-25T18:31:20.337Z,27.55
2019-02-25T18:33:56.198Z,30.85
2019-02-25T18:36:33.296Z,32.67
2019-02-25T18:39:11.713Z,28.90
2019-02-25T18:41:48.381Z,35.48
2019-02-25T18:44:25.252Z,45.08
2019-02-25T18:47:01.008Z,46.58
2019-02-25T18:49:37.975Z,30.88
2019-02-25T18:52:13.835Z,34.63
2019-02-25T18:54:49.788Z,29.90
2019-02-25T18:57:27.215Z,29.77
2019-02-25T19:00:04.535Z,36.13
2019-02-25T19:02:42.322Z,32.42
2019-02-25T19:05:18.100Z,33.70
2019-02-25T19:07:55.525Z,33.02
2019-02-25T19:10:31.546Z,27.32
2019-02-25T19:13:07.639Z,28.20
2019-02-25T19:15:43.767Z,29.15
2019-02-25T19:18:19.921Z,37.35
2019-02-25T19:20:55.718Z,35.50
2019-02-25T19:23:34.962Z,34.43
2019-02-25T19:26:10.482Z,32.48
2019-02-25T19:28:48.082Z,32.60
2019-02-25T19:31:26.143Z,27.37
2019-02-25T19:34:01.836Z,31.42
2019-02-25T19:36:39.057Z,29.60
2019-02-25T19:39:16.965Z,29.52
2019-02-25T19:41:53.823Z,29.25
2019-02-25T19:44:31.592Z,28.75
2019-02-25T19:47:09.698Z,29.95
2019-02-25T19:49:46.011Z,31.33
2019-02-25T19:52:21.987Z,32.08
2019-02-25T19:54:57.800Z,31.62
2019-02-25T19:57:33.639Z,30.25
2019-02-25T20:00:14.893Z,30.35
2019-02-25T20:02:52.784Z,30.82
2019-02-25T20:05:29.277Z,29.67
2019-02-25T20:08:05.172Z,32.98
2019-02-25T20:10:41.297Z,30.55
2019-02-25T20:13:22.000Z,33.02
2019-02-25T20:15:56.210Z,28.07
2019-02-25T20:18:34.962Z,30.35
2019-02-25T20:21:10.082Z,30.08
2019-02-25T20:23:47.987Z,30.65
2019-02-25T20:26:24.762Z,27.40
2019-02-25T20:29:01.909Z,29.10
2019-02-25T20:31:38.622Z,26.60
2019-02-25T20:34:16.485Z,27.58
2019-02-25T20:36:53.067Z,26.55
2019-02-25T20:39:31.786Z,26.00
2019-02-25T20:42:07.932Z,25.88
2019-02-25T20:44:43.668Z,26.12
2019-02-25T20:47:19.635Z,26.35
2019-02-25T20:49:56.068Z,25.20
2019-02-25T20:52:34.108Z,25.95
2019-02-25T20:55:12.852Z,25.55
2019-02-25T20:57:50.214Z,25.00
2019-02-25T21:00:35.031Z,25.00
2019-02-25T21:03:14.314Z,27.67
2019-02-25T21:05:49.656Z,27.20
2019-02-25T21:08:25.537Z,27.02
2019-02-25T21:11:06.369Z,25.12
2019-02-25T21:13:40.294Z,25.68
2019-02-25T21:16:16.331Z,26.52
2019-02-25T21:18:53.365Z,25.10
2019-02-25T21:21:30.905Z,26.40
2019-02-25T21:24:08.918Z,23.70
2019-02-25T21:26:45.023Z,24.10
2019-02-25T21:29:23.198Z,25.35
2019-02-25T21:31:59.878Z,23.20
2019-02-25T21:34:35.718Z,24.98
2019-02-25T21:37:11.479Z,25.27
2019-02-25T21:39:47.309Z,27.07
2019-02-25T21:42:24.678Z,26.73
2019-02-25T21:45:02.349Z,25.15
2019-02-25T21:47:38.483Z,27.15
2019-02-25T21:50:21.396Z,27.87
2019-02-25T21:52:57.242Z,26.82
2019-02-25T21:55:34.875Z,27.13
2019-02-25T21:58:10.697Z,26.45
2019-02-25T22:00:46.559Z,24.50
2019-02-25T22:03:22.405Z,26.10
2019-02-25T22:06:00.451Z,27.00
2019-02-25T22:08:36.777Z,26.15
2019-02-25T22:11:15.464Z,24.98
2019-02-25T22:13:50.325Z,24.80
2019-02-25T22:16:27.804Z,26.02
2019-02-25T22:19:04.042Z,24.70
2019-02-25T22:21:39.945Z,25.97
2019-02-25T22:24:15.795Z,26.97
2019-02-25T22:26:53.549Z,27.75
2019-02-25T22:29:29.132Z,26.60
2019-02-25T22:32:06.385Z,26.05
2019-02-25T22:34:42.481Z,25.77
2019-02-25T22:37:19.970Z,26.37
2019-02-25T22:39:55.827Z,27.80
2019-02-25T22:42:33.300Z,26.75
2019-02-25T22:45:14.057Z,26.25
2019-02-25T22:47:49.647Z,25.97
2019-02-25T22:50:27.500Z,25.97
2019-02-25T22:53:04.219Z,25.60
2019-02-25T22:55:42.657Z,28.00
2019-02-25T22:58:18.168Z,28.15
2019-02-25T23:01:04.526Z,27.25
2019-02-25T23:03:44.896Z,27.50
2019-02-25T23:06:21.364Z,29.80
2019-02-25T23:08:57.882Z,29.85
2019-02-25T23:11:33.734Z,29.00
2019-02-25T23:14:11.413Z,25.40
2019-02-25T23:16:48.103Z,26.77
2019-02-25T23:19:23.958Z,27.20
2019-02-25T23:21:59.806Z,26.15
2019-02-25T23:24:38.734Z,26.65
2019-02-25T23:27:14.377Z,26.33
2019-02-25T23:29:50.449Z,26.23
2019-02-25T23:32:26.286Z,26.07
2019-02-25T23:35:02.659Z,26.40
2019-02-25T23:37:38.505Z,25.90
2019-02-25T23:40:16.655Z,25.40
2019-02-25T23:42:52.277Z,25.75
2019-02-25T23:45:28.129Z,25.20
2019-02-25T23:48:04.420Z,25.68
2019-02-25T23:50:41.606Z,27.55
2019-02-25T23:53:17.433Z,26.10
2019-02-25T23:55:54.429Z,26.02
2019-02-25T23:58:30.882Z,27.67
